createdAt,value
2018-04-11T00:00:20.440Z,10.80
2018-04-11T00:02:48.877Z,10.80
2018-04-11T00:05:16.585Z,10.80
2018-04-11T00:07:44.320Z,10.80
2018-04-11T00:10:12.041Z,10.90
2018-04-11T00:12:39.776Z,10.80
2018-04-11T00:15:07.567Z,10.70
2018-04-11T00:17:35.327Z,10.70
2018-04-11T00:20:03.114Z,10.70
2018-04-11T00:22:30.838Z,10.70
2018-04-11T00:24:58.597Z,10.70
2018-04-11T00:27:26.299Z,10.70
2018-04-11T00:29:54.009Z,10.70
2018-04-11T00:32:21.697Z,10.80
2018-04-11T00:34:49.389Z,10.70
2018-04-11T00:37:17.109Z,10.70
2018-04-11T00:39:44.781Z,10.70
2018-04-11T00:42:12.438Z,10.70
2018-04-11T00:44:40.860Z,10.70
2018-04-11T00:47:08.563Z,10.60
2018-04-11T00:49:36.251Z,10.60
2018-04-11T00:52:04.037Z,10.50
2018-04-11T00:54:31.749Z,10.50
2018-04-11T00:56:59.420Z,10.50
2018-04-11T00:59:27.137Z,10.50
2018-04-11T01:01:55.600Z,10.50
2018-04-11T01:04:23.314Z,10.50
2018-04-11T01:06:50.995Z,10.50
2018-04-11T01:09:18.731Z,10.50
2018-04-11T01:11:46.408Z,10.40
2018-04-11T01:14:14.102Z,10.40
2018-04-11T01:16:41.789Z,10.30
2018-04-11T01:19:09.540Z,10.30
2018-04-11T01:21:38.016Z,10.30
2018-04-11T01:24:06.501Z,10.30
2018-04-11T01:26:34.951Z,10.30
2018-04-11T01:29:02.667Z,10.30
2018-04-11T01:31:30.391Z,10.20
2018-04-11T01:33:58.050Z,10.10
2018-04-11T01:36:25.751Z,10.10
2018-04-11T01:38:53.451Z,10.10
2018-04-11T01:41:21.144Z,10.10
2018-04-11T01:43:49.610Z,10.10
2018-04-11T01:46:17.311Z,10.10
2018-04-11T01:48:44.987Z,10.10
2018-04-11T01:51:12.703Z,10.10
2018-04-11T01:53:40.385Z,10.10
2018-04-11T01:56:08.033Z,10.10
2018-04-11T01:58:36.510Z,10.10
2018-04-11T02:01:05.021Z,10.10
2018-04-11T02:03:32.717Z,10.10
2018-04-11T02:06:00.528Z,10.10
2018-04-11T02:08:28.307Z,10.20
2018-04-11T02:10:56.053Z,10.20
2018-04-11T02:13:23.848Z,10.20
2018-04-11T02:15:51.615Z,10.20
2018-04-11T02:18:19.361Z,10.10
2018-04-11T02:20:47.047Z,10.10
2018-04-11T02:23:14.754Z,10.10
2018-04-11T02:25:43.168Z,10.00
2018-04-11T02:28:10.896Z,10.00
2018-04-11T02:30:39.390Z,9.90
2018-04-11T02:33:07.062Z,9.90
2018-04-11T02:35:34.730Z,9.90
2018-04-11T02:38:02.440Z,9.90
2018-04-11T02:40:30.116Z,9.90
2018-04-11T02:42:58.589Z,9.80
2018-04-11T02:45:27.083Z,9.80
2018-04-11T02:47:54.723Z,9.80
2018-04-11T02:50:23.223Z,9.80
2018-04-11T02:52:50.979Z,9.80
2018-04-11T02:55:19.371Z,9.80
2018-04-11T02:57:47.054Z,9.80
2018-04-11T03:00:14.803Z,9.70
2018-04-11T03:02:42.494Z,9.80
2018-04-11T03:05:10.266Z,9.80
2018-04-11T03:07:38.054Z,9.80
2018-04-11T03:10:05.763Z,9.80
2018-04-11T03:12:33.434Z,9.80
2018-04-11T03:15:01.141Z,9.90
2018-04-11T03:17:29.572Z,9.80
2018-04-11T03:19:57.271Z,9.80
2018-04-11T03:22:24.943Z,9.80
2018-04-11T03:24:53.355Z,9.80
2018-04-11T03:27:21.018Z,9.80
2018-04-11T03:29:48.700Z,9.70
2018-04-11T03:32:16.319Z,9.60
2018-04-11T03:34:44.030Z,9.60
2018-04-11T03:37:11.693Z,9.50
2018-04-11T03:39:39.325Z,9.40
2018-04-11T03:42:07.777Z,9.40
2018-04-11T03:44:35.507Z,9.30
2018-04-11T03:47:03.171Z,9.30
2018-04-11T03:49:31.632Z,9.20
2018-04-11T03:51:59.334Z,9.20
2018-04-11T03:54:27.926Z,9.10
2018-04-11T03:56:56.399Z,9.10
2018-04-11T03:59:24.850Z,9.00
2018-04-11T04:01:52.551Z,9.00
2018-04-11T04:04:20.235Z,8.90
2018-04-11T04:06:47.923Z,8.90
2018-04-11T04:09:15.621Z,8.90
2018-04-11T04:11:43.304Z,8.80
2018-04-11T04:14:22.805Z,8.80
2018-04-11T04:17:02.363Z,8.80
2018-04-11T04:19:41.906Z,8.70
2018-04-11T04:22:10.490Z,8.60
2018-04-11T04:24:38.206Z,8.60
2018-04-11T04:27:05.878Z,8.50
2018-04-11T04:29:34.396Z,8.40
2018-04-11T04:32:02.119Z,8.40
2018-04-11T04:34:29.839Z,8.40
2018-04-11T04:36:57.547Z,8.30
2018-04-11T04:39:25.979Z,8.10
2018-04-11T04:41:53.656Z,8.10
2018-04-11T04:44:21.345Z,8.00
2018-04-11T04:46:49.072Z,7.90
2018-04-11T04:49:16.785Z,7.80
2018-04-11T04:51:45.289Z,7.60
2018-04-11T04:54:13.007Z,7.60
2018-04-11T04:56:40.662Z,7.60
2018-04-11T04:59:08.333Z,7.60
2018-04-11T05:01:36.873Z,7.50
2018-04-11T05:04:04.517Z,7.50
2018-04-11T05:06:32.204Z,7.50
2018-04-11T05:08:59.908Z,7.40
2018-04-11T05:11:27.621Z,7.40
2018-04-11T05:13:55.305Z,7.40
2018-04-11T05:16:23.059Z,7.40
2018-04-11T05:18:50.710Z,7.50
2018-04-11T05:21:18.443Z,7.50
2018-04-11T05:23:46.152Z,7.60
2018-04-11T05:26:13.807Z,7.70
2018-04-11T05:28:41.553Z,7.90
2018-04-11T05:31:09.303Z,7.90
2018-04-11T05:33:36.965Z,8.10
2018-04-11T05:36:04.760Z,8.20
2018-04-11T05:38:33.311Z,8.40
2018-04-11T05:41:01.015Z,8.40
2018-04-11T05:43:29.487Z,8.70
2018-04-11T05:45:57.214Z,8.70
2018-04-11T05:48:24.878Z,9.00
2018-04-11T05:50:52.636Z,9.30
2018-04-11T05:53:20.325Z,9.60
2018-04-11T05:55:48.096Z,9.90
2018-04-11T05:58:15.860Z,10.10
2018-04-11T06:00:43.672Z,10.30
2018-04-11T06:03:11.371Z,10.50
2018-04-11T06:05:39.204Z,10.60
2018-04-11T06:08:06.991Z,10.80
2018-04-11T06:10:34.810Z,10.90
2018-04-11T06:13:02.651Z,10.90
2018-04-11T06:15:31.392Z,11.20
2018-04-11T06:17:59.256Z,11.20
2018-04-11T06:20:27.042Z,11.30
2018-04-11T06:25:30.625Z,11.50
2018-04-11T06:27:58.467Z,11.60
2018-04-11T06:30:26.269Z,11.60
2018-04-11T06:32:54.071Z,11.70
2018-04-11T06:35:22.634Z,12.10
2018-04-11T06:37:50.500Z,12.00
2018-04-11T06:40:18.355Z,12.30
2018-04-11T06:42:46.182Z,12.50
2018-04-11T06:45:13.888Z,12.40
2018-04-11T06:47:42.421Z,12.30
2018-04-11T06:50:10.127Z,12.30
2018-04-11T06:52:37.806Z,12.40
2018-04-11T06:55:05.556Z,12.60
2018-04-11T06:57:34.131Z,13.00
2018-04-11T07:00:01.882Z,13.00
2018-04-11T07:02:29.658Z,13.10
2018-04-11T07:04:58.228Z,13.30
2018-04-11T07:07:25.931Z,13.20
2018-04-11T07:09:53.721Z,13.40
2018-04-11T07:12:21.499Z,13.50
2018-04-11T07:14:49.233Z,13.60
2018-04-11T07:17:16.983Z,13.50
2018-04-11T07:19:44.703Z,13.80
2018-04-11T07:22:12.343Z,13.80
2018-04-11T07:24:40.063Z,13.80
2018-04-11T07:27:07.862Z,14.00
2018-04-11T07:29:35.632Z,13.90
2018-04-11T07:32:03.410Z,14.00
2018-04-11T07:34:31.185Z,14.00
2018-04-11T07:36:58.910Z,13.90
2018-04-11T07:39:26.622Z,13.90
2018-04-11T07:41:55.123Z,14.20
2018-04-11T07:44:22.851Z,14.20
2018-04-11T07:46:50.635Z,14.40
2018-04-11T07:49:18.393Z,14.40
2018-04-11T07:51:46.941Z,14.60
2018-04-11T07:54:14.617Z,14.60
2018-04-11T07:56:42.347Z,15.00
2018-04-11T07:59:10.083Z,15.30
2018-04-11T08:01:37.845Z,15.30
2018-04-11T08:04:05.554Z,15.60
2018-04-11T08:06:33.338Z,15.80
2018-04-11T08:09:01.017Z,16.00
2018-04-11T08:11:28.727Z,16.00
2018-04-11T08:13:56.435Z,16.10
2018-04-11T08:16:24.195Z,15.80
2018-04-11T08:18:52.725Z,15.80
2018-04-11T08:21:20.439Z,15.80
2018-04-11T08:23:48.423Z,15.50
2018-04-11T08:26:16.196Z,15.50
2018-04-11T08:28:43.915Z,15.70
2018-04-11T08:31:12.405Z,16.40
2018-04-11T08:33:40.134Z,16.30
2018-04-11T08:36:07.855Z,16.30
2018-04-11T08:38:35.652Z,16.00
2018-04-11T08:41:03.401Z,16.10
2018-04-11T08:43:31.063Z,16.10
2018-04-11T08:45:58.730Z,16.20
2018-04-11T08:48:26.484Z,16.30
2018-04-11T08:50:54.138Z,16.50
2018-04-11T08:53:21.831Z,16.30
2018-04-11T08:55:49.553Z,16.50
2018-04-11T08:58:17.212Z,16.20
2018-04-11T09:00:44.910Z,16.40
2018-04-11T09:03:12.719Z,16.60
2018-04-11T09:05:40.484Z,16.80
2018-04-11T09:08:08.257Z,16.80
2018-04-11T09:10:36.015Z,17.10
2018-04-11T09:13:03.690Z,17.40
2018-04-11T09:15:31.370Z,17.40
2018-04-11T09:17:59.046Z,17.40
2018-04-11T09:20:26.701Z,17.50
2018-04-11T09:22:54.394Z,17.80
2018-04-11T09:25:22.882Z,17.20
2018-04-11T09:27:50.610Z,17.20
2018-04-11T09:30:18.276Z,17.30
2018-04-11T09:32:45.952Z,17.30
2018-04-11T09:35:14.369Z,17.20
2018-04-11T09:37:42.063Z,17.20
2018-04-11T09:40:09.753Z,17.30
2018-04-11T09:42:38.260Z,16.90
2018-04-11T09:45:05.962Z,16.90
2018-04-11T09:47:33.661Z,16.90
2018-04-11T09:50:02.149Z,16.90
2018-04-11T09:52:29.914Z,16.90
2018-04-11T09:54:57.703Z,17.00
2018-04-11T09:57:25.395Z,17.10
2018-04-11T09:59:53.095Z,17.10
2018-04-11T10:02:24.407Z,16.90
2018-04-11T10:04:52.058Z,16.90
2018-04-11T10:07:19.786Z,16.90
2018-04-11T10:09:48.222Z,16.60
2018-04-11T10:12:15.876Z,16.70
2018-04-11T10:14:43.652Z,16.50
2018-04-11T10:17:12.111Z,16.10
2018-04-11T10:19:39.756Z,16.10
2018-04-11T10:22:07.571Z,15.70
2018-04-11T10:24:36.154Z,15.80
2018-04-11T10:27:03.847Z,15.80
2018-04-11T10:29:31.541Z,16.30
2018-04-11T10:31:59.441Z,16.80
2018-04-11T10:34:27.068Z,16.90
2018-04-11T10:36:54.836Z,16.80
2018-04-11T10:39:22.518Z,16.60
2018-04-11T10:41:50.928Z,17.20
2018-04-11T10:44:18.595Z,17.20
2018-04-11T10:46:46.289Z,16.90
2018-04-11T10:49:13.955Z,16.60
2018-04-11T10:51:41.616Z,16.60
2018-04-11T10:54:09.271Z,16.60
2018-04-11T10:56:36.914Z,16.80
2018-04-11T10:59:04.587Z,16.80
2018-04-11T11:01:32.250Z,16.60
2018-04-11T11:03:59.885Z,16.80
2018-04-11T11:06:27.542Z,17.20
2018-04-11T11:08:55.210Z,17.30
2018-04-11T11:11:22.877Z,17.40
2018-04-11T11:13:50.540Z,17.50
2018-04-11T11:16:18.214Z,17.60
2018-04-11T11:18:45.834Z,17.60
2018-04-11T11:21:13.501Z,17.70
2018-04-11T11:23:41.178Z,17.80
2018-04-11T11:26:08.907Z,17.70
2018-04-11T11:28:36.652Z,17.50
2018-04-11T11:31:04.320Z,17.60
2018-04-11T11:33:31.944Z,17.60
2018-04-11T11:36:00.367Z,17.70
2018-04-11T11:38:28.019Z,17.70
2018-04-11T11:40:55.621Z,17.70
2018-04-11T11:43:23.294Z,17.60
2018-04-11T11:45:51.083Z,18.00
2018-04-11T11:48:18.723Z,18.30
2018-04-11T11:50:47.150Z,18.80
2018-04-11T11:53:14.814Z,18.80
2018-04-11T11:55:42.483Z,18.90
2018-04-11T11:58:10.152Z,19.10
2018-04-11T12:00:37.814Z,19.10
2018-04-11T12:03:05.465Z,19.00
2018-04-11T12:05:33.133Z,18.80
2018-04-11T12:08:00.804Z,18.60
2018-04-11T12:10:28.432Z,18.50
2018-04-11T12:12:56.087Z,18.10
2018-04-11T12:15:23.760Z,18.00
2018-04-11T12:17:51.374Z,17.90
2018-04-11T12:20:19.790Z,18.00
2018-04-11T12:22:47.464Z,17.90
2018-04-11T12:25:15.106Z,18.00
2018-04-11T12:27:42.746Z,18.00
2018-04-11T12:30:10.403Z,18.10
2018-04-11T12:32:38.037Z,18.20
2018-04-11T12:35:05.698Z,18.30
2018-04-11T12:37:33.371Z,18.40
2018-04-11T12:40:01.778Z,18.40
2018-04-11T12:42:29.433Z,18.40
2018-04-11T12:44:57.122Z,18.40
2018-04-11T12:47:24.797Z,18.10
2018-04-11T12:49:52.455Z,18.10
2018-04-11T12:52:20.127Z,17.90
2018-04-11T12:54:47.833Z,18.00
2018-04-11T12:57:15.533Z,18.00
2018-04-11T12:59:43.203Z,18.10
2018-04-11T13:02:10.867Z,18.10
2018-04-11T13:04:38.645Z,17.90
2018-04-11T13:07:06.309Z,18.40
2018-04-11T13:09:34.736Z,19.00
2018-04-11T13:12:02.440Z,19.00
2018-04-11T13:14:30.159Z,19.00
2018-04-11T13:16:57.815Z,18.90
2018-04-11T13:19:25.487Z,18.70
2018-04-11T13:21:53.148Z,18.60
2018-04-11T13:24:20.789Z,18.60
2018-04-11T13:26:48.475Z,18.50
2018-04-11T13:29:16.161Z,18.40
2018-04-11T13:31:43.833Z,18.60
2018-04-11T13:34:12.271Z,18.80
2018-04-11T13:36:39.963Z,18.80
2018-04-11T13:39:08.439Z,18.70
2018-04-11T13:41:36.107Z,18.70
2018-04-11T13:44:04.576Z,18.60
2018-04-11T13:46:32.234Z,18.50
2018-04-11T13:48:59.961Z,18.70
2018-04-11T13:51:27.641Z,18.80
2018-04-11T13:53:55.311Z,18.90
2018-04-11T13:56:23.043Z,18.70
2018-04-11T13:58:50.689Z,18.70
2018-04-11T14:01:18.363Z,18.60
2018-04-11T14:03:46.033Z,18.70
2018-04-11T14:06:13.710Z,18.90
2018-04-11T14:08:41.431Z,19.00
2018-04-11T14:11:09.114Z,19.00
2018-04-11T14:13:36.827Z,18.90
2018-04-11T14:16:04.487Z,18.90
2018-04-11T14:18:32.905Z,19.10
2018-04-11T14:21:00.584Z,19.10
2018-04-11T14:23:28.202Z,19.10
2018-04-11T14:25:55.947Z,19.00
2018-04-11T14:28:24.431Z,19.00
2018-04-11T14:30:52.874Z,18.90
2018-04-11T14:33:20.527Z,18.90
2018-04-11T14:35:48.230Z,18.90
2018-04-11T14:38:16.636Z,18.80
2018-04-11T14:40:44.363Z,18.80
2018-04-11T14:43:12.782Z,18.60
2018-04-11T14:45:40.462Z,18.60
2018-04-11T14:48:08.168Z,18.70
2018-04-11T14:50:36.583Z,18.80
2018-04-11T14:53:04.221Z,18.80
2018-04-11T14:55:31.873Z,18.60
2018-04-11T14:58:00.300Z,18.50
2018-04-11T15:00:27.934Z,18.50
2018-04-11T15:02:55.586Z,18.60
2018-04-11T15:05:23.286Z,18.60
2018-04-11T15:07:50.906Z,18.60
2018-04-11T15:10:18.570Z,18.60
2018-04-11T15:12:46.268Z,18.30
2018-04-11T15:15:14.689Z,18.20
2018-04-11T15:17:42.393Z,18.10
2018-04-11T15:20:10.105Z,18.10
2018-04-11T15:22:38.524Z,18.10
2018-04-11T15:25:06.198Z,18.10
2018-04-11T15:27:34.069Z,18.10
2018-04-11T15:30:01.719Z,18.10
2018-04-11T15:32:29.478Z,18.10
2018-04-11T15:34:57.146Z,18.10
2018-04-11T15:37:24.766Z,18.00
2018-04-11T15:39:52.436Z,17.80
2018-04-11T15:42:20.165Z,17.80
2018-04-11T15:44:48.567Z,17.80
2018-04-11T15:47:16.230Z,17.70
2018-04-11T15:49:43.897Z,17.70
2018-04-11T15:52:11.515Z,17.70
2018-04-11T15:54:39.948Z,17.60
2018-04-11T15:57:07.622Z,17.60
2018-04-11T15:59:35.269Z,17.50
2018-04-11T16:02:02.943Z,17.50
2018-04-11T16:04:30.613Z,17.40
2018-04-11T16:06:58.372Z,17.40
2018-04-11T16:09:26.028Z,17.30
2018-04-11T16:11:53.702Z,17.40
2018-04-11T16:14:21.360Z,17.40
2018-04-11T16:16:49.031Z,17.40
2018-04-11T16:19:16.690Z,17.50
2018-04-11T16:21:45.100Z,17.60
2018-04-11T16:24:12.777Z,17.60
2018-04-11T16:26:40.456Z,17.60
2018-04-11T16:29:08.091Z,17.60
2018-04-11T16:31:35.734Z,17.60
2018-04-11T16:34:04.186Z,17.60
2018-04-11T16:36:31.796Z,17.60
2018-04-11T16:38:59.434Z,17.50
2018-04-11T16:41:27.899Z,17.40
2018-04-11T16:43:56.278Z,17.40
2018-04-11T16:46:24.694Z,17.30
2018-04-11T16:48:52.342Z,17.30
2018-04-11T16:51:20.027Z,17.30
2018-04-11T16:53:47.716Z,17.20
2018-04-11T16:56:15.373Z,17.20
2018-04-11T16:58:44.123Z,17.10
2018-04-11T17:01:11.804Z,17.00
2018-04-11T17:03:39.562Z,17.10
2018-04-11T17:06:07.190Z,17.10
2018-04-11T17:08:34.849Z,17.00
2018-04-11T17:11:02.799Z,17.00
2018-04-11T17:13:32.469Z,16.90
2018-04-11T17:16:00.360Z,16.90
2018-04-11T17:18:29.354Z,16.80
2018-04-11T17:21:09.650Z,16.70
2018-04-11T17:23:49.368Z,16.70
2018-04-11T17:26:28.983Z,16.70
2018-04-11T17:29:09.384Z,16.60
2018-04-11T17:31:37.323Z,16.50
2018-04-11T17:34:06.512Z,16.50
2018-04-11T17:36:35.350Z,16.40
2018-04-11T17:39:03.095Z,16.40
2018-04-11T17:41:30.762Z,16.30
2018-04-11T17:43:58.467Z,16.30
2018-04-11T17:46:26.131Z,16.20
2018-04-11T17:48:53.867Z,16.10
2018-04-11T17:51:21.515Z,16.00
2018-04-11T17:53:49.204Z,15.90
2018-04-11T17:56:16.888Z,15.90
2018-04-11T17:58:44.658Z,15.80
2018-04-11T18:01:12.409Z,15.70
2018-04-11T18:03:40.972Z,15.60
2018-04-11T18:06:08.674Z,15.60
2018-04-11T18:08:37.401Z,15.50
2018-04-11T18:11:05.392Z,15.50
2018-04-11T18:13:34.259Z,15.40
2018-04-11T18:16:02.148Z,15.30
2018-04-11T18:18:31.039Z,15.30
2018-04-11T18:20:59.897Z,15.10
2018-04-11T18:23:27.872Z,15.10
2018-04-11T18:25:55.850Z,15.10
2018-04-11T18:28:23.722Z,15.00
2018-04-11T18:30:51.587Z,15.00
2018-04-11T18:33:20.181Z,14.90
2018-04-11T18:35:48.625Z,14.90
2018-04-11T18:38:16.371Z,14.80
2018-04-11T18:40:44.179Z,14.80
2018-04-11T18:43:12.606Z,14.80
2018-04-11T18:45:40.300Z,14.80
2018-04-11T18:48:08.105Z,14.80
2018-04-11T18:50:36.044Z,14.80
2018-04-11T18:53:03.949Z,14.70
2018-04-11T18:55:31.842Z,14.70
2018-04-11T18:57:59.781Z,14.60
2018-04-11T19:00:27.756Z,14.60
2018-04-11T19:02:55.730Z,14.60
2018-04-11T19:05:23.374Z,14.60
2018-04-11T19:07:51.046Z,14.50
2018-04-11T19:10:19.499Z,14.50
2018-04-11T19:12:47.200Z,14.50
2018-04-11T19:15:15.094Z,14.50
2018-04-11T19:17:42.782Z,14.50
2018-04-11T19:20:10.561Z,14.50
2018-04-11T19:22:39.569Z,14.50
2018-04-11T19:25:07.478Z,14.50
2018-04-11T19:27:35.522Z,14.50
2018-04-11T19:30:03.386Z,14.50
2018-04-11T19:32:31.431Z,14.60
2018-04-11T19:34:59.177Z,14.60
2018-04-11T19:37:27.346Z,14.70
2018-04-11T19:39:55.449Z,14.70
2018-04-11T19:42:23.121Z,14.70
2018-04-11T19:44:51.581Z,14.70
2018-04-11T19:47:19.378Z,14.70
2018-04-11T19:49:48.292Z,14.70
2018-04-11T19:52:17.076Z,14.70
2018-04-11T19:54:45.134Z,14.70
2018-04-11T19:57:12.842Z,14.70
2018-04-11T19:59:40.636Z,14.60
2018-04-11T20:02:08.339Z,14.60
2018-04-11T20:04:36.033Z,14.60
2018-04-11T20:07:03.898Z,14.60
2018-04-11T20:09:32.693Z,14.50
2018-04-11T20:12:00.443Z,14.50
2018-04-11T20:14:29.664Z,14.50
2018-04-11T20:16:57.616Z,14.40
2018-04-11T20:19:25.370Z,14.40
2018-04-11T20:21:53.324Z,14.40
2018-04-11T20:24:21.188Z,14.30
2018-04-11T20:26:48.944Z,14.30
2018-04-11T20:29:16.651Z,14.20
2018-04-11T20:31:44.355Z,14.20
2018-04-11T20:34:12.831Z,14.10
2018-04-11T20:36:41.345Z,14.00
2018-04-11T20:39:09.035Z,14.00
2018-04-11T20:41:36.688Z,14.00
2018-04-11T20:44:04.398Z,14.00
2018-04-11T20:46:32.867Z,13.90
2018-04-11T20:49:01.675Z,13.80
2018-04-11T20:51:29.958Z,13.80
2018-04-11T20:53:58.076Z,13.80
2018-04-11T20:56:25.903Z,13.80
2018-04-11T20:58:54.143Z,13.80
2018-04-11T21:01:22.356Z,13.80
2018-04-11T21:03:50.025Z,13.80
2018-04-11T21:06:18.240Z,13.80
2018-04-11T21:11:22.763Z,13.60
2018-04-11T21:13:52.461Z,13.60
2018-04-11T21:16:22.691Z,13.70
2018-04-11T21:18:51.153Z,13.60
2018-04-11T21:21:18.862Z,13.60
2018-04-11T21:23:49.236Z,13.60
2018-04-11T21:26:18.711Z,13.60
2018-04-11T21:28:46.614Z,13.50
2018-04-11T21:31:14.835Z,13.50
2018-04-11T21:33:43.253Z,13.50
2018-04-11T21:36:12.053Z,13.50
2018-04-11T21:38:40.522Z,13.50
2018-04-11T21:41:08.854Z,13.50
2018-04-11T21:43:37.622Z,13.50
2018-04-11T21:46:06.266Z,13.50
2018-04-11T21:48:34.127Z,13.40
2018-04-11T21:51:02.974Z,13.40
2018-04-11T21:53:30.724Z,13.50
2018-04-11T21:55:58.672Z,13.50
2018-04-11T21:58:27.194Z,13.50
2018-04-11T22:00:54.841Z,13.40
2018-04-11T22:03:22.523Z,13.50
2018-04-11T22:05:50.213Z,13.50
2018-04-11T22:08:17.870Z,13.40
2018-04-11T22:10:45.534Z,13.40
2018-04-11T22:13:13.224Z,13.40
2018-04-11T22:15:41.027Z,13.40
2018-04-11T22:18:08.783Z,13.40
2018-04-11T22:20:36.454Z,13.40
2018-04-11T22:23:04.193Z,13.40
2018-04-11T22:25:31.915Z,13.40
2018-04-11T22:27:59.604Z,13.40
2018-04-11T22:30:27.281Z,13.40
2018-04-11T22:32:54.955Z,13.40
2018-04-11T22:35:22.622Z,13.40
2018-04-11T22:37:50.304Z,13.40
2018-04-11T22:40:18.017Z,13.30
2018-04-11T22:42:45.700Z,13.30
2018-04-11T22:45:14.126Z,13.20
2018-04-11T22:47:41.857Z,13.20
2018-04-11T22:50:09.554Z,13.20
2018-04-11T22:52:37.222Z,13.20
2018-04-11T22:55:05.722Z,13.30
2018-04-11T22:57:33.417Z,13.20
2018-04-11T23:00:01.135Z,13.20
2018-04-11T23:02:29.557Z,13.30
2018-04-11T23:04:57.240Z,13.30
2018-04-11T23:07:24.911Z,13.30
2018-04-11T23:09:52.626Z,13.30
2018-04-11T23:12:20.387Z,13.40
2018-04-11T23:14:48.069Z,13.40
2018-04-11T23:17:15.758Z,13.50
2018-04-11T23:19:43.466Z,13.50
2018-04-11T23:22:11.154Z,13.50
2018-04-11T23:24:38.830Z,13.50
2018-04-11T23:27:06.532Z,13.50
2018-04-11T23:29:34.195Z,13.50
2018-04-11T23:32:01.876Z,13.40
2018-04-11T23:34:29.658Z,13.40
2018-04-11T23:36:57.322Z,13.30
2018-04-11T23:39:24.995Z,13.30
2018-04-11T23:41:52.663Z,13.30
2018-04-11T23:44:20.306Z,13.30
2018-04-11T23:46:47.971Z,13.30
2018-04-11T23:49:15.646Z,13.40
2018-04-11T23:51:43.323Z,13.40
2018-04-11T23:54:11.001Z,13.40
2018-04-11T23:56:38.675Z,13.50
2018-04-11T23:59:06.346Z,13.50
